sensor_id;sensor_type;location;lat;lon;timestamp;P1;durP1;ratioP1;P2;durP2;ratioP2
1995;SDS011;38556;47.068;15.408;2022-12-24T00:01:57;38.72;;;35.63;;
1995;SDS011;38556;47.068;15.408;2022-12-24T00:04:24;42.55;;;38.70;;
1995;SDS011;38556;47.068;15.408;2022-12-24T00:06:53;43.20;;;39.38;;
1995;SDS011;38556;47.068;15.408;2022-12-24T00:09:20;41.95;;;38.30;;
1995;SDS011;38556;47.068;15.408;2022-12-24T00:11:47;39.30;;;35.90;;
1995;SDS011;38556;47.068;15.408;2022-12-24T00:14:14;41.45;;;37.85;;
1995;SDS011;38556;47.068;15.408;2022-12-24T00:16:41;40.08;;;36.38;;
1995;SDS011;38556;47.068;15.408;2022-12-24T00:19:09;40.03;;;36.35;;
1995;SDS011;38556;47.068;15.408;2022-12-24T00:21:37;41.35;;;37.70;;
1995;SDS011;38556;47.068;15.408;2022-12-24T00:24:06;40.88;;;37.42;;
1995;SDS011;38556;47.068;15.408;2022-12-24T00:26:33;40.78;;;37.10;;
1995;SDS011;38556;47.068;15.408;2022-12-24T00:29:01;38.80;;;35.08;;
1995;SDS011;38556;47.068;15.408;2022-12-24T00:31:28;40.95;;;37.55;;
1995;SDS011;38556;47.068;15.408;2022-12-24T00:33:55;42.58;;;38.95;;
1995;SDS011;38556;47.068;15.408;2022-12-24T00:36:23;41.92;;;38.20;;
1995;SDS011;38556;47.068;15.408;2022-12-24T00:38:50;41.20;;;37.70;;
1995;SDS011;38556;47.068;15.408;2022-12-24T00:41:19;43.90;;;40.33;;
1995;SDS011;38556;47.068;15.408;2022-12-24T00:43:53;42.80;;;39.15;;
1995;SDS011;38556;47.068;15.408;2022-12-24T00:46:23;43.45;;;39.75;;
1995;SDS011;38556;47.068;15.408;2022-12-24T00:48:51;43.42;;;39.67;;
1995;SDS011;38556;47.068;15.408;2022-12-24T00:51:18;39.88;;;36.53;;
1995;SDS011;38556;47.068;15.408;2022-12-24T00:53:47;44.15;;;40.28;;
1995;SDS011;38556;47.068;15.408;2022-12-24T00:56:14;40.85;;;37.45;;
1995;SDS011;38556;47.068;15.408;2022-12-24T00:58:43;42.90;;;39.03;;
1995;SDS011;38556;47.068;15.408;2022-12-24T01:01:11;41.10;;;37.60;;
1995;SDS011;38556;47.068;15.408;2022-12-24T01:03:39;40.75;;;37.13;;
1995;SDS011;38556;47.068;15.408;2022-12-24T01:06:07;41.97;;;38.30;;
1995;SDS011;38556;47.068;15.408;2022-12-24T01:08:35;41.20;;;37.75;;
1995;SDS011;38556;47.068;15.408;2022-12-24T01:11:04;38.92;;;35.53;;
1995;SDS011;38556;47.068;15.408;2022-12-24T01:13:32;40.55;;;37.22;;
1995;SDS011;38556;47.068;15.408;2022-12-24T01:16:01;43.50;;;39.80;;
1995;SDS011;38556;47.068;15.408;2022-12-24T01:18:29;43.65;;;39.88;;
1995;SDS011;38556;47.068;15.408;2022-12-24T01:20:57;44.55;;;40.55;;
1995;SDS011;38556;47.068;15.408;2022-12-24T01:23:26;43.17;;;39.47;;
1995;SDS011;38556;47.068;15.408;2022-12-24T01:25:54;40.55;;;37.20;;
1995;SDS011;38556;47.068;15.408;2022-12-24T01:28:24;38.45;;;35.15;;
1995;SDS011;38556;47.068;15.408;2022-12-24T01:30:52;37.28;;;34.28;;
1995;SDS011;38556;47.068;15.408;2022-12-24T01:33:21;37.42;;;34.28;;
1995;SDS011;38556;47.068;15.408;2022-12-24T01:35:48;38.30;;;35.00;;
1995;SDS011;38556;47.068;15.408;2022-12-24T01:38:16;37.30;;;34.28;;
1995;SDS011;38556;47.068;15.408;2022-12-24T01:40:43;40.03;;;36.58;;
1995;SDS011;38556;47.068;15.408;2022-12-24T01:43:29;36.45;;;33.20;;
1995;SDS011;38556;47.068;15.408;2022-12-24T01:45:58;36.72;;;33.58;;
1995;SDS011;38556;47.068;15.408;2022-12-24T01:48:32;37.65;;;34.53;;
1995;SDS011;38556;47.068;15.408;2022-12-24T01:51:04;38.30;;;35.10;;
1995;SDS011;38556;47.068;15.408;2022-12-24T01:53:37;35.75;;;33.05;;
1995;SDS011;38556;47.068;15.408;2022-12-24T01:56:07;32.10;;;29.38;;
1995;SDS011;38556;47.068;15.408;2022-12-24T01:58:37;34.67;;;32.03;;
1995;SDS011;38556;47.068;15.408;2022-12-24T02:01:09;32.67;;;29.92;;
1995;SDS011;38556;47.068;15.408;2022-12-24T02:03:37;30.98;;;28.58;;
1995;SDS011;38556;47.068;15.408;2022-12-24T02:06:04;29.15;;;27.10;;
1995;SDS011;38556;47.068;15.408;2022-12-24T02:08:33;27.42;;;25.42;;
1995;SDS011;38556;47.068;15.408;2022-12-24T02:11:12;26.00;;;24.20;;
1995;SDS011;38556;47.068;15.408;2022-12-24T02:13:41;24.95;;;23.33;;
1995;SDS011;38556;47.068;15.408;2022-12-24T02:16:13;24.77;;;22.98;;
1995;SDS011;38556;47.068;15.408;2022-12-24T02:18:55;24.55;;;22.75;;
1995;SDS011;38556;47.068;15.408;2022-12-24T02:21:38;26.63;;;24.63;;
1995;SDS011;38556;47.068;15.408;2022-12-24T02:24:36;26.45;;;24.45;;
1995;SDS011;38556;47.068;15.408;2022-12-24T02:27:36;27.70;;;25.50;;
1995;SDS011;38556;47.068;15.408;2022-12-24T02:30:18;25.08;;;23.42;;
1995;SDS011;38556;47.068;15.408;2022-12-24T02:32:52;27.75;;;25.75;;
1995;SDS011;38556;47.068;15.408;2022-12-24T02:35:28;26.15;;;24.27;;
1995;SDS011;38556;47.068;15.408;2022-12-24T02:38:05;27.80;;;25.70;;
1995;SDS011;38556;47.068;15.408;2022-12-24T02:40:40;26.35;;;24.55;;
1995;SDS011;38556;47.068;15.408;2022-12-24T02:43:14;27.13;;;25.23;;
1995;SDS011;38556;47.068;15.408;2022-12-24T02:45:47;26.40;;;24.70;;
1995;SDS011;38556;47.068;15.408;2022-12-24T02:48:18;26.70;;;25.00;;
1995;SDS011;38556;47.068;15.408;2022-12-24T02:50:54;28.90;;;26.75;;
1995;SDS011;38556;47.068;15.408;2022-12-24T02:53:23;30.33;;;27.65;;
1995;SDS011;38556;47.068;15.408;2022-12-24T02:55:54;30.95;;;28.60;;
1995;SDS011;38556;47.068;15.408;2022-12-24T02:58:37;30.52;;;28.27;;
1995;SDS011;38556;47.068;15.408;2022-12-24T03:01:12;30.80;;;28.63;;
1995;SDS011;38556;47.068;15.408;2022-12-24T03:03:54;32.15;;;29.67;;
1995;SDS011;38556;47.068;15.408;2022-12-24T03:06:36;30.15;;;28.02;;
1995;SDS011;38556;47.068;15.408;2022-12-24T03:09:10;33.05;;;30.58;;
1995;SDS011;38556;47.068;15.408;2022-12-24T03:11:43;32.00;;;29.52;;
1995;SDS011;38556;47.068;15.408;2022-12-24T03:14:16;32.10;;;29.45;;
1995;SDS011;38556;47.068;15.408;2022-12-24T03:16:46;29.90;;;27.75;;
1995;SDS011;38556;47.068;15.408;2022-12-24T03:19:13;30.55;;;28.40;;
1995;SDS011;38556;47.068;15.408;2022-12-24T03:21:42;31.50;;;29.30;;
1995;SDS011;38556;47.068;15.408;2022-12-24T03:24:10;31.40;;;29.10;;
1995;SDS011;38556;47.068;15.408;2022-12-24T03:26:38;31.05;;;28.85;;
1995;SDS011;38556;47.068;15.408;2022-12-24T03:29:06;33.30;;;30.73;;
1995;SDS011;38556;47.068;15.408;2022-12-24T03:31:41;32.08;;;29.63;;
1995;SDS011;38556;47.068;15.408;2022-12-24T03:34:11;32.25;;;29.50;;
1995;SDS011;38556;47.068;15.408;2022-12-24T03:36:40;33.13;;;30.52;;
1995;SDS011;38556;47.068;15.408;2022-12-24T03:39:08;32.10;;;29.77;;
1995;SDS011;38556;47.068;15.408;2022-12-24T03:41:36;32.75;;;30.10;;
1995;SDS011;38556;47.068;15.408;2022-12-24T03:44:03;32.75;;;30.20;;
1995;SDS011;38556;47.068;15.408;2022-12-24T03:46:30;32.25;;;29.75;;
1995;SDS011;38556;47.068;15.408;2022-12-24T03:48:58;31.90;;;29.50;;
1995;SDS011;38556;47.068;15.408;2022-12-24T03:51:27;31.40;;;28.67;;
1995;SDS011;38556;47.068;15.408;2022-12-24T03:53:55;32.55;;;30.08;;
1995;SDS011;38556;47.068;15.408;2022-12-24T03:56:22;32.40;;;30.00;;
1995;SDS011;38556;47.068;15.408;2022-12-24T03:58:51;32.15;;;29.75;;
1995;SDS011;38556;47.068;15.408;2022-12-24T04:01:18;33.55;;;31.05;;
1995;SDS011;38556;47.068;15.408;2022-12-24T04:03:46;33.50;;;30.90;;
1995;SDS011;38556;47.068;15.408;2022-12-24T04:06:14;34.75;;;32.05;;
1995;SDS011;38556;47.068;15.408;2022-12-24T04:08:43;34.22;;;31.48;;
1995;SDS011;38556;47.068;15.408;2022-12-24T04:11:12;34.30;;;31.60;;
1995;SDS011;38556;47.068;15.408;2022-12-24T04:13:41;35.63;;;32.85;;
1995;SDS011;38556;47.068;15.408;2022-12-24T04:16:10;32.97;;;30.58;;
1995;SDS011;38556;47.068;15.408;2022-12-24T04:18:38;36.45;;;33.55;;
1995;SDS011;38556;47.068;15.408;2022-12-24T04:21:06;35.10;;;32.00;;
1995;SDS011;38556;47.068;15.408;2022-12-24T04:23:35;33.80;;;31.10;;
1995;SDS011;38556;47.068;15.408;2022-12-24T04:26:05;32.95;;;30.25;;
1995;SDS011;38556;47.068;15.408;2022-12-24T04:28:34;32.05;;;29.75;;
1995;SDS011;38556;47.068;15.408;2022-12-24T04:31:02;32.35;;;29.85;;
1995;SDS011;38556;47.068;15.408;2022-12-24T04:33:31;32.92;;;30.52;;
1995;SDS011;38556;47.068;15.408;2022-12-24T04:35:58;32.95;;;30.48;;
1995;SDS011;38556;47.068;15.408;2022-12-24T04:38:27;34.60;;;31.83;;
1995;SDS011;38556;47.068;15.408;2022-12-24T04:40:58;31.70;;;29.45;;
1995;SDS011;38556;47.068;15.408;2022-12-24T04:43:28;34.35;;;31.65;;
1995;SDS011;38556;47.068;15.408;2022-12-24T04:45:55;32.60;;;30.00;;
1995;SDS011;38556;47.068;15.408;2022-12-24T04:48:23;32.28;;;29.67;;
1995;SDS011;38556;47.068;15.408;2022-12-24T04:50:50;34.40;;;31.50;;
1995;SDS011;38556;47.068;15.408;2022-12-24T04:53:17;32.60;;;30.05;;
1995;SDS011;38556;47.068;15.408;2022-12-24T04:55:45;35.15;;;32.08;;
1995;SDS011;38556;47.068;15.408;2022-12-24T04:58:12;32.67;;;30.17;;
1995;SDS011;38556;47.068;15.408;2022-12-24T05:00:41;34.15;;;31.38;;
1995;SDS011;38556;47.068;15.408;2022-12-24T05:03:08;34.75;;;32.08;;
1995;SDS011;38556;47.068;15.408;2022-12-24T05:05:36;34.53;;;31.85;;
1995;SDS011;38556;47.068;15.408;2022-12-24T05:08:03;34.38;;;31.70;;
1995;SDS011;38556;47.068;15.408;2022-12-24T05:10:31;31.63;;;28.92;;
1995;SDS011;38556;47.068;15.408;2022-12-24T05:12:59;32.60;;;30.20;;
1995;SDS011;38556;47.068;15.408;2022-12-24T05:15:26;32.30;;;29.83;;
1995;SDS011;38556;47.068;15.408;2022-12-24T05:17:55;31.45;;;29.15;;
1995;SDS011;38556;47.068;15.408;2022-12-24T05:20:22;31.25;;;29.05;;
1995;SDS011;38556;47.068;15.408;2022-12-24T05:22:49;31.10;;;28.85;;
1995;SDS011;38556;47.068;15.408;2022-12-24T05:25:35;30.73;;;28.50;;
1995;SDS011;38556;47.068;15.408;2022-12-24T05:28:21;32.40;;;29.70;;
1995;SDS011;38556;47.068;15.408;2022-12-24T05:30:49;31.63;;;29.30;;
1995;SDS011;38556;47.068;15.408;2022-12-24T05:33:17;32.20;;;29.50;;
1995;SDS011;38556;47.068;15.408;2022-12-24T05:35:44;32.38;;;30.05;;
1995;SDS011;38556;47.068;15.408;2022-12-24T05:38:12;30.70;;;28.17;;
1995;SDS011;38556;47.068;15.408;2022-12-24T05:40:39;28.15;;;26.20;;
1995;SDS011;38556;47.068;15.408;2022-12-24T05:43:06;30.85;;;28.35;;
1995;SDS011;38556;47.068;15.408;2022-12-24T05:45:34;30.20;;;27.92;;
1995;SDS011;38556;47.068;15.408;2022-12-24T05:48:01;27.48;;;25.48;;
1995;SDS011;38556;47.068;15.408;2022-12-24T05:50:30;28.92;;;26.65;;
1995;SDS011;38556;47.068;15.408;2022-12-24T05:52:57;27.90;;;25.90;;
1995;SDS011;38556;47.068;15.408;2022-12-24T05:55:24;26.45;;;24.45;;
1995;SDS011;38556;47.068;15.408;2022-12-24T05:57:52;25.17;;;23.35;;
1995;SDS011;38556;47.068;15.408;2022-12-24T06:00:19;25.10;;;23.30;;
1995;SDS011;38556;47.068;15.408;2022-12-24T06:02:47;22.70;;;21.17;;
1995;SDS011;38556;47.068;15.408;2022-12-24T06:05:14;23.40;;;21.90;;
1995;SDS011;38556;47.068;15.408;2022-12-24T06:07:43;23.27;;;21.88;;
1995;SDS011;38556;47.068;15.408;2022-12-24T06:10:10;23.23;;;21.38;;
1995;SDS011;38556;47.068;15.408;2022-12-24T06:12:38;23.60;;;21.63;;
1995;SDS011;38556;47.068;15.408;2022-12-24T06:15:05;22.45;;;21.15;;
1995;SDS011;38556;47.068;15.408;2022-12-24T06:17:34;22.95;;;21.63;;
1995;SDS011;38556;47.068;15.408;2022-12-24T06:20:01;23.55;;;22.10;;
1995;SDS011;38556;47.068;15.408;2022-12-24T06:22:28;22.90;;;21.48;;
1995;SDS011;38556;47.068;15.408;2022-12-24T06:24:58;23.98;;;22.50;;
1995;SDS011;38556;47.068;15.408;2022-12-24T06:27:25;22.83;;;21.40;;
1995;SDS011;38556;47.068;15.408;2022-12-24T06:29:52;22.10;;;20.80;;
1995;SDS011;38556;47.068;15.408;2022-12-24T06:32:19;23.08;;;21.70;;
1995;SDS011;38556;47.068;15.408;2022-12-24T06:34:46;22.80;;;21.40;;
1995;SDS011;38556;47.068;15.408;2022-12-24T06:37:14;23.35;;;21.85;;
1995;SDS011;38556;47.068;15.408;2022-12-24T06:39:43;21.80;;;20.40;;
1995;SDS011;38556;47.068;15.408;2022-12-24T06:42:12;23.58;;;22.08;;
1995;SDS011;38556;47.068;15.408;2022-12-24T06:44:39;21.65;;;20.35;;
1995;SDS011;38556;47.068;15.408;2022-12-24T06:47:06;22.77;;;21.40;;
1995;SDS011;38556;47.068;15.408;2022-12-24T06:49:34;25.50;;;23.75;;
1995;SDS011;38556;47.068;15.408;2022-12-24T06:52:01;23.85;;;22.33;;
1995;SDS011;38556;47.068;15.408;2022-12-24T06:54:29;22.85;;;21.45;;
1995;SDS011;38556;47.068;15.408;2022-12-24T06:56:56;24.10;;;22.20;;
1995;SDS011;38556;47.068;15.408;2022-12-24T06:59:24;23.60;;;22.30;;
1995;SDS011;38556;47.068;15.408;2022-12-24T07:01:52;22.70;;;21.40;;
1995;SDS011;38556;47.068;15.408;2022-12-24T07:04:19;22.02;;;20.77;;
1995;SDS011;38556;47.068;15.408;2022-12-24T07:06:47;23.33;;;21.85;;
1995;SDS011;38556;47.068;15.408;2022-12-24T07:09:14;23.63;;;22.17;;
1995;SDS011;38556;47.068;15.408;2022-12-24T07:11:41;29.15;;;27.10;;
1995;SDS011;38556;47.068;15.408;2022-12-24T07:14:08;29.10;;;27.00;;
1995;SDS011;38556;47.068;15.408;2022-12-24T07:16:37;28.13;;;26.13;;
1995;SDS011;38556;47.068;15.408;2022-12-24T07:19:04;28.35;;;26.38;;
1995;SDS011;38556;47.068;15.408;2022-12-24T07:21:31;29.98;;;27.73;;
1995;SDS011;38556;47.068;15.408;2022-12-24T07:23:59;28.33;;;26.33;;
1995;SDS011;38556;47.068;15.408;2022-12-24T07:26:26;27.60;;;25.90;;
1995;SDS011;38556;47.068;15.408;2022-12-24T07:28:54;27.80;;;25.80;;
1995;SDS011;38556;47.068;15.408;2022-12-24T07:31:21;27.00;;;25.30;;
1995;SDS011;38556;47.068;15.408;2022-12-24T07:33:50;26.88;;;25.17;;
1995;SDS011;38556;47.068;15.408;2022-12-24T07:36:18;27.45;;;25.70;;
1995;SDS011;38556;47.068;15.408;2022-12-24T07:38:46;28.52;;;26.63;;
1995;SDS011;38556;47.068;15.408;2022-12-24T07:41:15;26.95;;;25.15;;
1995;SDS011;38556;47.068;15.408;2022-12-24T07:43:42;26.10;;;24.38;;
1995;SDS011;38556;47.068;15.408;2022-12-24T07:46:10;23.83;;;22.13;;
1995;SDS011;38556;47.068;15.408;2022-12-24T07:48:38;25.10;;;23.55;;
1995;SDS011;38556;47.068;15.408;2022-12-24T07:51:06;24.17;;;22.58;;
1995;SDS011;38556;47.068;15.408;2022-12-24T07:53:33;24.23;;;22.67;;
1995;SDS011;38556;47.068;15.408;2022-12-24T07:56:01;25.70;;;24.00;;
1995;SDS011;38556;47.068;15.408;2022-12-24T07:58:28;25.88;;;24.15;;
1995;SDS011;38556;47.068;15.408;2022-12-24T08:00:55;25.48;;;23.88;;
1995;SDS011;38556;47.068;15.408;2022-12-24T08:03:24;27.02;;;25.02;;
1995;SDS011;38556;47.068;15.408;2022-12-24T08:05:51;27.23;;;25.45;;
1995;SDS011;38556;47.068;15.408;2022-12-24T08:08:20;27.77;;;25.83;;
1995;SDS011;38556;47.068;15.408;2022-12-24T08:10:47;25.13;;;23.52;;
1995;SDS011;38556;47.068;15.408;2022-12-24T08:13:15;26.35;;;24.60;;
1995;SDS011;38556;47.068;15.408;2022-12-24T08:15:43;25.67;;;24.08;;
1995;SDS011;38556;47.068;15.408;2022-12-24T08:18:11;26.95;;;25.15;;
1995;SDS011;38556;47.068;15.408;2022-12-24T08:20:38;26.73;;;24.73;;
1995;SDS011;38556;47.068;15.408;2022-12-24T08:23:06;25.90;;;24.08;;
1995;SDS011;38556;47.068;15.408;2022-12-24T08:25:36;26.20;;;24.30;;
1995;SDS011;38556;47.068;15.408;2022-12-24T08:28:03;24.40;;;22.77;;
1995;SDS011;38556;47.068;15.408;2022-12-24T08:30:31;25.33;;;23.55;;
1995;SDS011;38556;47.068;15.408;2022-12-24T08:32:59;27.60;;;25.52;;
1995;SDS011;38556;47.068;15.408;2022-12-24T08:35:26;26.10;;;24.10;;
1995;SDS011;38556;47.068;15.408;2022-12-24T08:37:53;26.58;;;24.67;;
1995;SDS011;38556;47.068;15.408;2022-12-24T08:40:21;24.58;;;22.85;;
1995;SDS011;38556;47.068;15.408;2022-12-24T08:42:50;26.88;;;24.58;;
1995;SDS011;38556;47.068;15.408;2022-12-24T08:45:18;25.77;;;24.10;;
1995;SDS011;38556;47.068;15.408;2022-12-24T08:47:45;24.88;;;23.17;;
1995;SDS011;38556;47.068;15.408;2022-12-24T08:50:12;27.48;;;25.38;;
1995;SDS011;38556;47.068;15.408;2022-12-24T08:52:40;27.30;;;25.25;;
1995;SDS011;38556;47.068;15.408;2022-12-24T08:55:07;31.05;;;28.52;;
1995;SDS011;38556;47.068;15.408;2022-12-24T08:57:34;29.90;;;27.55;;
1995;SDS011;38556;47.068;15.408;2022-12-24T09:00:05;29.10;;;26.70;;
1995;SDS011;38556;47.068;15.408;2022-12-24T09:02:33;28.33;;;26.05;;
1995;SDS011;38556;47.068;15.408;2022-12-24T09:05:01;27.05;;;25.10;;
1995;SDS011;38556;47.068;15.408;2022-12-24T09:07:29;26.92;;;25.08;;
1995;SDS011;38556;47.068;15.408;2022-12-24T09:09:56;39.38;;;36.03;;
1995;SDS011;38556;47.068;15.408;2022-12-24T09:12:23;31.63;;;29.10;;
1995;SDS011;38556;47.068;15.408;2022-12-24T09:14:51;28.65;;;26.33;;
1995;SDS011;38556;47.068;15.408;2022-12-24T09:17:20;30.05;;;27.63;;
1995;SDS011;38556;47.068;15.408;2022-12-24T09:19:47;30.20;;;27.80;;
1995;SDS011;38556;47.068;15.408;2022-12-24T09:22:15;31.33;;;29.02;;
1995;SDS011;38556;47.068;15.408;2022-12-24T09:24:43;36.75;;;33.50;;
1995;SDS011;38556;47.068;15.408;2022-12-24T09:27:10;35.85;;;32.90;;
1995;SDS011;38556;47.068;15.408;2022-12-24T09:29:37;35.97;;;33.08;;
1995;SDS011;38556;47.068;15.408;2022-12-24T09:32:05;34.60;;;31.98;;
1995;SDS011;38556;47.068;15.408;2022-12-24T09:34:34;33.13;;;30.70;;
1995;SDS011;38556;47.068;15.408;2022-12-24T09:37:01;35.17;;;32.47;;
1995;SDS011;38556;47.068;15.408;2022-12-24T09:39:28;37.25;;;34.15;;
1995;SDS011;38556;47.068;15.408;2022-12-24T09:41:58;34.55;;;31.73;;
1995;SDS011;38556;47.068;15.408;2022-12-24T09:44:37;36.38;;;33.58;;
1995;SDS011;38556;47.068;15.408;2022-12-24T09:47:10;41.50;;;37.83;;
1995;SDS011;38556;47.068;15.408;2022-12-24T09:49:47;39.85;;;36.42;;
1995;SDS011;38556;47.068;15.408;2022-12-24T09:52:19;44.42;;;40.03;;
1995;SDS011;38556;47.068;15.408;2022-12-24T09:54:55;41.35;;;37.72;;
1995;SDS011;38556;47.068;15.408;2022-12-24T09:57:31;40.67;;;37.35;;
1995;SDS011;38556;47.068;15.408;2022-12-24T10:00:02;35.88;;;32.88;;
1995;SDS011;38556;47.068;15.408;2022-12-24T10:02:31;41.30;;;37.58;;
1995;SDS011;38556;47.068;15.408;2022-12-24T10:05:00;36.17;;;32.92;;
1995;SDS011;38556;47.068;15.408;2022-12-24T10:07:30;36.38;;;33.47;;
1995;SDS011;38556;47.068;15.408;2022-12-24T10:10:08;36.25;;;33.35;;
1995;SDS011;38556;47.068;15.408;2022-12-24T10:12:45;36.28;;;33.30;;
1995;SDS011;38556;47.068;15.408;2022-12-24T10:15:22;35.97;;;33.08;;
1995;SDS011;38556;47.068;15.408;2022-12-24T10:17:59;35.47;;;31.92;;
1995;SDS011;38556;47.068;15.408;2022-12-24T10:20:40;33.08;;;30.45;;
1995;SDS011;38556;47.068;15.408;2022-12-24T10:23:14;33.50;;;31.10;;
1995;SDS011;38556;47.068;15.408;2022-12-24T10:25:48;34.40;;;31.80;;
1995;SDS011;38556;47.068;15.408;2022-12-24T10:28:27;32.97;;;30.65;;
1995;SDS011;38556;47.068;15.408;2022-12-24T10:30:58;33.63;;;31.05;;
1995;SDS011;38556;47.068;15.408;2022-12-24T10:33:31;34.45;;;31.83;;
1995;SDS011;38556;47.068;15.408;2022-12-24T10:36:05;32.92;;;30.55;;
1995;SDS011;38556;47.068;15.408;2022-12-24T10:38:37;34.05;;;31.35;;
1995;SDS011;38556;47.068;15.408;2022-12-24T10:41:04;34.28;;;31.63;;
1995;SDS011;38556;47.068;15.408;2022-12-24T10:43:33;32.47;;;30.20;;
1995;SDS011;38556;47.068;15.408;2022-12-24T10:46:04;30.40;;;28.30;;
1995;SDS011;38556;47.068;15.408;2022-12-24T10:48:35;31.52;;;29.00;;
1995;SDS011;38556;47.068;15.408;2022-12-24T10:51:10;33.50;;;30.90;;
1995;SDS011;38556;47.068;15.408;2022-12-24T10:53:43;33.92;;;31.25;;
1995;SDS011;38556;47.068;15.408;2022-12-24T10:56:14;33.97;;;31.55;;
1995;SDS011;38556;47.068;15.408;2022-12-24T10:58:43;31.85;;;29.45;;
1995;SDS011;38556;47.068;15.408;2022-12-24T11:01:12;30.80;;;28.50;;
1995;SDS011;38556;47.068;15.408;2022-12-24T11:03:39;33.25;;;30.73;;
1995;SDS011;38556;47.068;15.408;2022-12-24T11:06:09;32.25;;;29.95;;
1995;SDS011;38556;47.068;15.408;2022-12-24T11:08:38;32.80;;;30.40;;
1995;SDS011;38556;47.068;15.408;2022-12-24T11:11:07;32.67;;;30.17;;
1995;SDS011;38556;47.068;15.408;2022-12-24T11:13:37;31.13;;;28.92;;
1995;SDS011;38556;47.068;15.408;2022-12-24T11:16:07;32.75;;;30.25;;
1995;SDS011;38556;47.068;15.408;2022-12-24T11:18:43;31.30;;;29.20;;
1995;SDS011;38556;47.068;15.408;2022-12-24T11:21:18;32.30;;;29.85;;
1995;SDS011;38556;47.068;15.408;2022-12-24T11:23:49;32.75;;;30.25;;
1995;SDS011;38556;47.068;15.408;2022-12-24T11:26:23;34.25;;;31.38;;
1995;SDS011;38556;47.068;15.408;2022-12-24T11:31:48;33.17;;;30.52;;
1995;SDS011;38556;47.068;15.408;2022-12-24T11:34:20;34.75;;;32.22;;
1995;SDS011;38556;47.068;15.408;2022-12-24T11:36:54;36.58;;;33.80;;
1995;SDS011;38556;47.068;15.408;2022-12-24T11:39:37;35.90;;;33.00;;
1995;SDS011;38556;47.068;15.408;2022-12-24T11:42:05;37.38;;;34.28;;
1995;SDS011;38556;47.068;15.408;2022-12-24T11:44:33;36.38;;;33.40;;
1995;SDS011;38556;47.068;15.408;2022-12-24T11:47:11;37.67;;;34.60;;
1995;SDS011;38556;47.068;15.408;2022-12-24T11:49:40;35.85;;;33.17;;
1995;SDS011;38556;47.068;15.408;2022-12-24T11:52:15;35.10;;;32.50;;
1995;SDS011;38556;47.068;15.408;2022-12-24T11:54:50;34.72;;;32.08;;
1995;SDS011;38556;47.068;15.408;2022-12-24T11:57:36;36.47;;;33.72;;
1995;SDS011;38556;47.068;15.408;2022-12-24T12:00:10;40.85;;;37.45;;
1995;SDS011;38556;47.068;15.408;2022-12-24T12:02:38;36.13;;;33.10;;
1995;SDS011;38556;47.068;15.408;2022-12-24T12:05:09;35.38;;;32.42;;
1995;SDS011;38556;47.068;15.408;2022-12-24T12:07:42;33.45;;;30.83;;
1995;SDS011;38556;47.068;15.408;2022-12-24T12:10:14;35.03;;;32.38;;
1995;SDS011;38556;47.068;15.408;2022-12-24T12:12:44;33.63;;;31.13;;
1995;SDS011;38556;47.068;15.408;2022-12-24T12:15:16;37.63;;;34.53;;
1995;SDS011;38556;47.068;15.408;2022-12-24T12:17:47;52.40;;;47.50;;
1995;SDS011;38556;47.068;15.408;2022-12-24T12:20:21;33.90;;;31.38;;
1995;SDS011;38556;47.068;15.408;2022-12-24T12:22:54;31.95;;;29.42;;
1995;SDS011;38556;47.068;15.408;2022-12-24T12:25:26;32.60;;;30.40;;
1995;SDS011;38556;47.068;15.408;2022-12-24T12:27:57;32.30;;;29.77;;
1995;SDS011;38556;47.068;15.408;2022-12-24T12:30:28;30.77;;;28.48;;
1995;SDS011;38556;47.068;15.408;2022-12-24T12:32:58;33.10;;;30.58;;
1995;SDS011;38556;47.068;15.408;2022-12-24T12:35:29;32.50;;;30.20;;
1995;SDS011;38556;47.068;15.408;2022-12-24T12:38:01;32.03;;;29.70;;
1995;SDS011;38556;47.068;15.408;2022-12-24T12:40:36;48.00;;;43.65;;
1995;SDS011;38556;47.068;15.408;2022-12-24T12:43:22;35.60;;;32.78;;
1995;SDS011;38556;47.068;15.408;2022-12-24T12:46:01;29.95;;;27.85;;
1995;SDS011;38556;47.068;15.408;2022-12-24T12:48:46;31.20;;;29.10;;
1995;SDS011;38556;47.068;15.408;2022-12-24T12:51:30;30.45;;;28.35;;
1995;SDS011;38556;47.068;15.408;2022-12-24T12:54:10;30.65;;;28.48;;
1995;SDS011;38556;47.068;15.408;2022-12-24T12:56:54;31.27;;;28.98;;
1995;SDS011;38556;47.068;15.408;2022-12-24T12:59:29;31.00;;;28.75;;
1995;SDS011;38556;47.068;15.408;2022-12-24T13:02:01;30.42;;;28.13;;
1995;SDS011;38556;47.068;15.408;2022-12-24T13:04:50;32.25;;;29.85;;
1995;SDS011;38556;47.068;15.408;2022-12-24T13:07:47;32.30;;;29.85;;
1995;SDS011;38556;47.068;15.408;2022-12-24T13:10:39;32.72;;;30.35;;
1995;SDS011;38556;47.068;15.408;2022-12-24T13:13:25;31.25;;;29.02;;
1995;SDS011;38556;47.068;15.408;2022-12-24T13:16:23;30.65;;;28.55;;
1995;SDS011;38556;47.068;15.408;2022-12-24T13:19:14;31.60;;;29.40;;
1995;SDS011;38556;47.068;15.408;2022-12-24T13:21:47;32.45;;;30.05;;
1995;SDS011;38556;47.068;15.408;2022-12-24T13:24:17;32.95;;;30.55;;
1995;SDS011;38556;47.068;15.408;2022-12-24T13:27:03;31.27;;;29.10;;
1995;SDS011;38556;47.068;15.408;2022-12-24T13:29:43;31.83;;;29.42;;
1995;SDS011;38556;47.068;15.408;2022-12-24T13:35:31;30.92;;;28.83;;
1995;SDS011;38556;47.068;15.408;2022-12-24T13:44:15;34.03;;;31.48;;
1995;SDS011;38556;47.068;15.408;2022-12-24T13:46:49;34.03;;;31.27;;
1995;SDS011;38556;47.068;15.408;2022-12-24T13:49:24;34.90;;;32.15;;
1995;SDS011;38556;47.068;15.408;2022-12-24T13:52:05;38.13;;;35.22;;
1995;SDS011;38556;47.068;15.408;2022-12-24T13:54:35;34.37;;;31.90;;
1995;SDS011;38556;47.068;15.408;2022-12-24T13:57:15;33.65;;;31.10;;
1995;SDS011;38556;47.068;15.408;2022-12-24T13:59:56;34.90;;;32.30;;
1995;SDS011;38556;47.068;15.408;2022-12-24T14:02:27;33.45;;;31.00;;
1995;SDS011;38556;47.068;15.408;2022-12-24T14:05:02;34.97;;;32.45;;
1995;SDS011;38556;47.068;15.408;2022-12-24T14:07:32;34.08;;;31.65;;
1995;SDS011;38556;47.068;15.408;2022-12-24T14:10:01;35.90;;;33.17;;
1995;SDS011;38556;47.068;15.408;2022-12-24T14:18:28;33.65;;;31.33;;
1995;SDS011;38556;47.068;15.408;2022-12-24T14:20:59;35.47;;;32.77;;
1995;SDS011;38556;47.068;15.408;2022-12-24T14:26:18;33.47;;;30.83;;
1995;SDS011;38556;47.068;15.408;2022-12-24T14:28:49;33.10;;;30.90;;
1995;SDS011;38556;47.068;15.408;2022-12-24T14:31:21;32.53;;;30.43;;
1995;SDS011;38556;47.068;15.408;2022-12-24T14:33:50;35.40;;;32.90;;
1995;SDS011;38556;47.068;15.408;2022-12-24T14:36:19;37.70;;;34.77;;
1995;SDS011;38556;47.068;15.408;2022-12-24T14:38:48;33.03;;;30.73;;
1995;SDS011;38556;47.068;15.408;2022-12-24T14:41:29;31.17;;;29.07;;
1995;SDS011;38556;47.068;15.408;2022-12-24T14:44:07;31.37;;;29.27;;
1995;SDS011;38556;47.068;15.408;2022-12-24T14:46:42;31.60;;;29.50;;
1995;SDS011;38556;47.068;15.408;2022-12-24T14:49:20;32.00;;;29.77;;
1995;SDS011;38556;47.068;15.408;2022-12-24T14:51:56;31.40;;;29.40;;
1995;SDS011;38556;47.068;15.408;2022-12-24T14:54:36;32.97;;;30.25;;
1995;SDS011;38556;47.068;15.408;2022-12-24T14:57:05;32.40;;;29.63;;
1995;SDS011;38556;47.068;15.408;2022-12-24T14:59:45;31.17;;;28.83;;
1995;SDS011;38556;47.068;15.408;2022-12-24T15:02:24;29.75;;;27.83;;
1995;SDS011;38556;47.068;15.408;2022-12-24T15:05:05;32.85;;;30.60;;